JP Observations

RJFM 231014Z 16008KT 5000 -SHRA BR FEW004 SCT020 BKN030 23/23 Q1003 RMK 1ST004 3CU020 5CU030 A2963 RJFM 231008Z 16010KT 3500 +SHRA BR FEW004 SCT030 BKN035 23/22 Q1003 RMK 1ST004 3CU030 5CU035 A2964 RJFO 231010Z 20003KT 4500 -SHRA BR FEW003 SCT020 BKN025 20/19 Q1005 RMK 1ST003 3CU020 6CU025 A2969 RJTL 231011Z 34003KT 270V020 5000 -RA BR FEW002 BKN009 BKN020 19/19 Q1003 RMK 2ST002 5ST009 7SC020 A2963 RJTR 231008Z AUTO 30004KT 1 3/4SM -RA BR SCT004 SCT023 SCT027 OVC055 18/17 A2965 RMK AO2 VIS 1 3/4V2 3/4 SLP041 RJTY 231011Z AUTO 23003KT 10SM SCT010 BKN080 19/18 A2969 RMK AO2 SLP053 FZRANO $ RJAA 231000Z 02009KT 340V060 4500 -RA BR FEW003 SCT045 BKN060 19/18 Q1003 NOSIG RJAA 231000Z 02009KT 340V060 4500 -RA BR FEW003 SCT045 BKN060 19/18 Q1003 NOSIGRMK 1ST003 4SC045 7SC060 A2963 RJAH 231000Z 03008KT 3500 -RA BR FEW008 BKN012 OVC050 18/17 Q1003 RJBB 231000Z 34003KT 9999 FEW008 BKN045 BKN070 21/20 Q1005 NOSIG RJBD 231000Z VRB01KT 9000 -SHRA FEW008 SCT035 BKN070 21/20 Q1005 RJBE 231000Z 03003KT 360V110 9999 FEW015 SCT040 BKN080 22/18 Q1005 RJCB 231000Z VRB03KT 9999 FEW050 BKN140 BKN/// 22/10 Q0999 RJCC 231000Z 16014KT 9999 FEW050 BKN130 17/12 Q0999 RJCC 231000Z 16014KT 9999 FEW050 BKN130 17/12 Q0999 RMK 1CU050 7AC130 A2951 RJCH 231000Z 23004KT 170V270 9999 FEW020 SCT060 BKN150 18/13 Q1000 RJCK 231000Z 22013KT 9999 FEW030 SCT160 BKN/// 19/11 Q0999 RJCM 231000Z 36005KT 9999 -SHRA FEW050 SCT080 BKN110 20/15 Q0996 RJDC 231000Z 14006KT 9999 FEW020 SCT035 BKN045 22/19 Q1004 RJDT 231000Z 23003KT 190V300 9999 FEW025 22/17 Q1004 RJEC 231000Z 21004KT 170V240 9999 -SHRA FEW020 SCT060 BKN080 18/13 Q0998 RJFF 231000Z 29004KT 240V320 9999 FEW015 SCT045 BKN070 23/17 Q1004 RJFF 231000Z 29004KT 240V320 9999 FEW015 SCT045 BKN070 23/17 Q1004 RMK 1CU015 4SC045 7AC070 A2967 RJFK 231000Z VRB01KT 2000 R34/1200VP2000D SHRA BR FEW001 BKN005 BKN008 21/21 Q1005 RMK 1ST001 5ST005 7ST008 A2968 RJFK 231003Z VRB01KT 2000 R34/0800VP2000D +SHRA BR FEW001 BKN005 BKN008 21/21 Q1005 RMK 1ST001 5ST005 7ST008 A2968 RI++ RJFK 231000Z VRB01KT 2000 R34/1200VP2000D SHRA BR FEW001 BKN005 BKN008 21/21 Q1005 RJFM 231000Z 16010KT 3000 SHRA BR FEW004 SCT030 BKN035 23/22 Q1003 RJFO 231000Z 20002KT 5000 -SHRA BR FEW003 SCT020 BKN025 20/19 Q1005 RJFR 231000Z 16004KT 9999 FEW025 BKN030 BKN060 23/15 Q1004 RJFS 231000Z 26005KT 9999 FEW015 SCT025 BKN035 21/18 Q1005 RJFT 231000Z 00000KT 1500 R07/P1800N -SHRA BR FEW001 SCT002 BKN005 19/19 Q1006 RJFU 231000Z VRB01KT 9999 FEW005 SCT020 BKN030 21/19 Q1005 RJGG 231000Z 33010KT 9999 FEW010 BKN080 20/17 Q1005 NOSIG RJKA 231000Z 21015KT 9000 FEW020 BKN/// 27/26 Q1008 RJNK 231000Z 27007KT 9999 FEW100 BKN120 BKN150 22/12 Q1004 RJNT 231000Z 21004KT 9999 FEW008 BKN110 21/16 Q1004 RJNW 231000Z 26007KT 9999 FEW030 BKN140 BKN/// 20/16 Q1004 RJOA 231000Z 09005KT 9999 PRFG FEW000 BKN050 19/16 Q1005 RJOB 231000Z 11002KT 7000 FEW007 SCT010 BKN050 20/18 Q1005 RJOC 231000Z 16008KT 9999 FEW030 SCT060 BKN080 23/17 Q1003 RJOH 231000Z 21005KT 9999 -RA FEW050 BKN070 OVC110 23/16 Q1004 RJOI 230955Z 12004KT 9999 FEW025 BKN045 BKN080 22/18 A2967 RMK SLP047 T02170178 RJOK 231000Z 09003KT 9999 -SHRA FEW005 SCT008 BKN010 22/20 Q1004 RJOM 231000Z 14004KT 9999 VCSH FEW010 SCT025 BKN040 20/18 Q1004 RJOO 231000Z 07003KT 9999 FEW015 SCT035 BKN045 21/16 Q1005 RJOO 231000Z 07003KT 9999 FEW015 SCT035 BKN045 21/16 Q1005 RMK 1CU015 3CU035 5SC045 A2969 RJOR 231000Z 19002KT 9999 FEW030 SCT080 BKN100 23/17 Q1004 RJOT 231000Z VRB02KT 6000 -RA BR FEW005 SCT020 BKN040 19/19 Q1005 RJOW 231000Z 13005KT 9999 FEW009 SCT035 BKN060 20/18 Q1004 RJOY 231000Z 05003KT 9999 FEW008 SCT020 BKN025 21/19 Q1005 RJSA 231000Z 25005KT CAVOK 21/11 Q1001 RJSC 231000Z 07008KT 9999 FEW025 SCT130 BKN150 24/17 Q1001 RJSF 231000Z 13004KT 090V150 2000 -RA BCFG BR FEW006 SCT015 BKN110 19/19 Q1004 RJSI 231000Z 20007KT 9999 FEW060 SCT160 BKN/// 23/16 Q1002 RJSK 231000Z 29005KT CAVOK 22/11 Q1002 RJSN 231000Z 32003KT 290V360 9999 FEW060 BKN150 22/18 Q1002 RJSR 231000Z VRB01KT CAVOK 21/13 Q1001 RJSS 231000Z 34003KT 290V020 3500 BR FEW003 SCT005 BKN130 20/20 Q1002 RJSY 231000Z 25003KT 9999 FEW040 BKN170 BKN/// 20/15 Q1002 RJTL 231002Z 35003KT 280V020 4500 -RA BR FEW002 BKN012 BKN020 19/19 Q1003 RMK 2ST002 5ST012 7SC020 A2963 RJTT 231000Z 03007KT 7000 -RA FEW008 BKN015 BKN040 20/18 Q1003 TEMPO FEW008 BKN012 RJTT 231000Z 03007KT 7000 -RA FEW008 BKN015 BKN040 20/18 Q1003 TEMPO FEW008 BKN012 RMK 1ST008 5SC015 6SC040 A2964 RJTY 230956Z AUTO 00000KT 10SM BKN010 BKN075 19/17 A2969 RMK AO2 RAE30 CIG 010V075 BKN010 V SCT SLP053 P0003 T01890174 FZRANO $ ROAH 231000Z 21012KT 9999 FEW020 29/26 Q1009 ROAH 231000Z 21012KT 9999 FEW020 29/26 Q1009 RMK 1CU020 A2982 RODN 230956Z AUTO 20016G22KT 10SM CLR 29/26 A2983 RMK AO2 SLP106 T02880258 $ ROIG 231000Z 18010KT 9999 FEW012 BKN/// 28/27 Q1009 ROMY 231000Z 20012KT 9999 FEW010 SCT/// 28/26 Q1010 RORS 231000Z 19009KT 9999 FEW011 BKN/// 28/27 Q1009 ROYN 231000Z AUTO 20006KT 9999 //////CB 29/26 Q1008 RJNS 231000Z 30007KT 9999 VCSH FEW001 SCT020 BKN030 18/18 Q1004